sensor_id;sensor_type;location;lat;lon;timestamp;pressure;altitude;pressure_sealevel;temperature;humidity
17772;BME280;9010;32.624;-96.938;2022-08-01T00:00:05;99076.00;;;37.01;37.06
17772;BME280;9010;32.624;-96.938;2022-08-01T00:02:36;99069.69;;;37.00;37.56
17772;BME280;9010;32.624;-96.938;2022-08-01T00:05:06;99083.63;;;36.99;37.36
17772;BME280;9010;32.624;-96.938;2022-08-01T00:07:35;99071.44;;;36.90;37.76
17772;BME280;9010;32.624;-96.938;2022-08-01T00:10:04;99075.50;;;36.87;38.18
17772;BME280;9010;32.624;-96.938;2022-08-01T00:12:33;99069.94;;;36.82;37.88
17772;BME280;9010;32.624;-96.938;2022-08-01T00:15:01;99078.19;;;36.82;38.10
17772;BME280;9010;32.624;-96.938;2022-08-01T00:17:29;99072.56;;;36.72;38.48
17772;BME280;9010;32.624;-96.938;2022-08-01T00:19:59;99076.31;;;36.66;38.22
17772;BME280;9010;32.624;-96.938;2022-08-01T00:22:29;99068.88;;;36.61;38.42
17772;BME280;9010;32.624;-96.938;2022-08-01T00:24:58;99072.91;;;36.59;38.98
17772;BME280;9010;32.624;-96.938;2022-08-01T00:27:26;99079.91;;;36.50;38.68
17772;BME280;9010;32.624;-96.938;2022-08-01T00:29:54;99075.25;;;36.50;38.03
17772;BME280;9010;32.624;-96.938;2022-08-01T00:32:23;99081.91;;;36.54;38.13
17772;BME280;9010;32.624;-96.938;2022-08-01T00:34:52;99071.69;;;36.50;37.91
17772;BME280;9010;32.624;-96.938;2022-08-01T00:37:22;99073.25;;;36.46;38.36
17772;BME280;9010;32.624;-96.938;2022-08-01T00:39:50;99074.19;;;36.35;39.05
17772;BME280;9010;32.624;-96.938;2022-08-01T00:42:19;99072.44;;;36.28;38.80
17772;BME280;9010;32.624;-96.938;2022-08-01T00:44:47;99077.56;;;36.25;38.82
17772;BME280;9010;32.624;-96.938;2022-08-01T00:47:15;99079.41;;;36.19;38.72
17772;BME280;9010;32.624;-96.938;2022-08-01T00:49:44;99073.19;;;36.24;38.40
17772;BME280;9010;32.624;-96.938;2022-08-01T00:52:12;99078.34;;;36.20;38.63
17772;BME280;9010;32.624;-96.938;2022-08-01T00:54:43;99076.59;;;36.14;38.53
17772;BME280;9010;32.624;-96.938;2022-08-01T00:57:11;99080.59;;;36.07;38.91
17772;BME280;9010;32.624;-96.938;2022-08-01T00:59:40;99083.72;;;35.99;38.76
17772;BME280;9010;32.624;-96.938;2022-08-01T01:02:09;99081.19;;;35.97;38.54
17772;BME280;9010;32.624;-96.938;2022-08-01T01:04:37;99090.16;;;35.93;38.72
17772;BME280;9010;32.624;-96.938;2022-08-01T01:07:12;99092.66;;;35.94;38.15
17772;BME280;9010;32.624;-96.938;2022-08-01T01:09:50;99095.78;;;35.86;38.62
17772;BME280;9010;32.624;-96.938;2022-08-01T01:12:24;99099.59;;;35.85;38.31
17772;BME280;9010;32.624;-96.938;2022-08-01T01:15:06;99093.47;;;35.78;38.94
17772;BME280;9010;32.624;-96.938;2022-08-01T01:17:41;99102.25;;;35.80;38.69
17772;BME280;9010;32.624;-96.938;2022-08-01T01:20:12;99102.56;;;35.67;38.90
17772;BME280;9010;32.624;-96.938;2022-08-01T01:22:50;99100.22;;;35.59;39.34
17772;BME280;9010;32.624;-96.938;2022-08-01T01:25:39;99094.16;;;35.45;39.84
17772;BME280;9010;32.624;-96.938;2022-08-01T01:28:15;99102.63;;;35.44;39.68
17772;BME280;9010;32.624;-96.938;2022-08-01T01:30:50;99114.06;;;35.41;40.10
17772;BME280;9010;32.624;-96.938;2022-08-01T01:33:24;99105.06;;;35.29;40.62
17772;BME280;9010;32.624;-96.938;2022-08-01T01:36:01;99099.75;;;35.22;40.89
17772;BME280;9010;32.624;-96.938;2022-08-01T01:38:34;99107.50;;;35.13;42.09
17772;BME280;9010;32.624;-96.938;2022-08-01T01:41:05;99108.91;;;35.04;41.49
17772;BME280;9010;32.624;-96.938;2022-08-01T01:43:35;99104.97;;;35.00;42.18
17772;BME280;9010;32.624;-96.938;2022-08-01T01:46:06;99114.63;;;34.91;43.34
17772;BME280;9010;32.624;-96.938;2022-08-01T01:48:36;99118.91;;;34.87;42.99
17772;BME280;9010;32.624;-96.938;2022-08-01T01:51:07;99114.41;;;34.81;43.30
17772;BME280;9010;32.624;-96.938;2022-08-01T01:53:36;99114.78;;;34.73;43.16
17772;BME280;9010;32.624;-96.938;2022-08-01T01:56:05;99118.47;;;34.67;42.90
17772;BME280;9010;32.624;-96.938;2022-08-01T01:58:34;99119.41;;;34.61;43.43
17772;BME280;9010;32.624;-96.938;2022-08-01T02:01:07;99124.13;;;34.54;44.35
17772;BME280;9010;32.624;-96.938;2022-08-01T02:03:38;99124.63;;;34.51;44.55
17772;BME280;9010;32.624;-96.938;2022-08-01T02:06:08;99126.03;;;34.42;46.40
17772;BME280;9010;32.624;-96.938;2022-08-01T02:08:37;99124.81;;;34.38;46.21
17772;BME280;9010;32.624;-96.938;2022-08-01T02:11:06;99131.69;;;34.29;46.15
17772;BME280;9010;32.624;-96.938;2022-08-01T02:13:52;99127.19;;;34.23;45.67
17772;BME280;9010;32.624;-96.938;2022-08-01T02:16:25;99128.25;;;34.22;46.12
17772;BME280;9010;32.624;-96.938;2022-08-01T02:18:54;99137.03;;;34.24;45.41
17772;BME280;9010;32.624;-96.938;2022-08-01T02:21:28;99128.97;;;34.29;45.12
17772;BME280;9010;32.624;-96.938;2022-08-01T02:24:06;99130.16;;;34.33;44.68
17772;BME280;9010;32.624;-96.938;2022-08-01T02:26:39;99131.22;;;34.32;44.71
17772;BME280;9010;32.624;-96.938;2022-08-01T02:29:12;99136.69;;;34.32;45.01
17772;BME280;9010;32.624;-96.938;2022-08-01T02:31:45;99133.38;;;34.30;44.89
17772;BME280;9010;32.624;-96.938;2022-08-01T02:34:17;99144.75;;;34.27;45.34
17772;BME280;9010;32.624;-96.938;2022-08-01T02:36:47;99142.03;;;34.27;45.31
17772;BME280;9010;32.624;-96.938;2022-08-01T02:39:18;99142.75;;;34.22;45.18
17772;BME280;9010;32.624;-96.938;2022-08-01T02:41:50;99149.50;;;34.20;45.66
17772;BME280;9010;32.624;-96.938;2022-08-01T02:44:24;99149.97;;;34.17;46.10
17772;BME280;9010;32.624;-96.938;2022-08-01T02:46:57;99146.50;;;34.09;45.89
17772;BME280;9010;32.624;-96.938;2022-08-01T02:49:30;99153.22;;;34.07;46.57
17772;BME280;9010;32.624;-96.938;2022-08-01T02:52:03;99154.41;;;33.99;46.74
17772;BME280;9010;32.624;-96.938;2022-08-01T02:54:33;99142.75;;;33.92;46.25
17772;BME280;9010;32.624;-96.938;2022-08-01T02:57:02;99154.88;;;33.96;47.20
17772;BME280;9010;32.624;-96.938;2022-08-01T02:59:32;99149.88;;;33.93;46.87
17772;BME280;9010;32.624;-96.938;2022-08-01T03:02:05;99155.78;;;33.90;47.29
17772;BME280;9010;32.624;-96.938;2022-08-01T03:04:36;99159.69;;;33.83;47.67
17772;BME280;9010;32.624;-96.938;2022-08-01T03:07:06;99160.16;;;33.80;47.37
17772;BME280;9010;32.624;-96.938;2022-08-01T03:09:38;99167.38;;;33.74;48.09
17772;BME280;9010;32.624;-96.938;2022-08-01T03:12:10;99165.69;;;33.73;47.69
17772;BME280;9010;32.624;-96.938;2022-08-01T03:14:40;99166.41;;;33.69;48.69
17772;BME280;9010;32.624;-96.938;2022-08-01T03:17:11;99170.03;;;33.63;48.70
17772;BME280;9010;32.624;-96.938;2022-08-01T03:19:39;99171.94;;;33.62;48.82
17772;BME280;9010;32.624;-96.938;2022-08-01T03:22:10;99175.53;;;33.56;48.71
17772;BME280;9010;32.624;-96.938;2022-08-01T03:24:40;99180.41;;;33.54;48.96
17772;BME280;9010;32.624;-96.938;2022-08-01T03:27:09;99180.25;;;33.49;48.85
17772;BME280;9010;32.624;-96.938;2022-08-01T03:29:39;99178.81;;;33.46;49.11
17772;BME280;9010;32.624;-96.938;2022-08-01T03:32:11;99183.66;;;33.44;48.75
17772;BME280;9010;32.624;-96.938;2022-08-01T03:34:40;99176.19;;;33.40;49.91
17772;BME280;9010;32.624;-96.938;2022-08-01T03:37:12;99184.81;;;33.37;49.03
17772;BME280;9010;32.624;-96.938;2022-08-01T03:39:45;99180.03;;;33.32;50.59
17772;BME280;9010;32.624;-96.938;2022-08-01T03:42:19;99183.59;;;33.33;49.30
17772;BME280;9010;32.624;-96.938;2022-08-01T03:44:51;99189.03;;;33.33;49.52
17772;BME280;9010;32.624;-96.938;2022-08-01T03:47:26;99191.88;;;33.26;49.54
17772;BME280;9010;32.624;-96.938;2022-08-01T03:49:58;99185.63;;;33.19;49.43
17772;BME280;9010;32.624;-96.938;2022-08-01T03:52:29;99177.72;;;33.18;49.28
17772;BME280;9010;32.624;-96.938;2022-08-01T03:54:59;99179.81;;;33.16;49.52
17772;BME280;9010;32.624;-96.938;2022-08-01T03:57:31;99177.97;;;33.10;49.33
17772;BME280;9010;32.624;-96.938;2022-08-01T04:00:00;99184.06;;;33.12;49.39
17772;BME280;9010;32.624;-96.938;2022-08-01T04:02:30;99179.06;;;33.09;50.52
17772;BME280;9010;32.624;-96.938;2022-08-01T04:04:59;99181.16;;;33.07;49.25
17772;BME280;9010;32.624;-96.938;2022-08-01T04:07:29;99182.66;;;33.03;49.49
17772;BME280;9010;32.624;-96.938;2022-08-01T04:09:57;99178.69;;;32.98;50.51
17772;BME280;9010;32.624;-96.938;2022-08-01T04:12:26;99184.59;;;32.95;50.05
17772;BME280;9010;32.624;-96.938;2022-08-01T04:14:54;99186.72;;;32.93;49.68
17772;BME280;9010;32.624;-96.938;2022-08-01T04:17:22;99186.13;;;32.91;49.59
17772;BME280;9010;32.624;-96.938;2022-08-01T04:19:52;99184.59;;;32.95;48.72
17772;BME280;9010;32.624;-96.938;2022-08-01T04:22:20;99188.84;;;32.91;49.33
17772;BME280;9010;32.624;-96.938;2022-08-01T04:24:52;99181.56;;;32.85;49.23
17772;BME280;9010;32.624;-96.938;2022-08-01T04:27:24;99184.75;;;32.82;48.48
17772;BME280;9010;32.624;-96.938;2022-08-01T04:29:56;99185.59;;;32.83;49.20
17772;BME280;9010;32.624;-96.938;2022-08-01T04:32:28;99175.97;;;32.80;48.93
17772;BME280;9010;32.624;-96.938;2022-08-01T04:35:01;99178.47;;;32.82;47.78
17772;BME280;9010;32.624;-96.938;2022-08-01T04:37:31;99180.34;;;32.81;48.18
17772;BME280;9010;32.624;-96.938;2022-08-01T04:40:04;99169.09;;;32.78;48.87
17772;BME280;9010;32.624;-96.938;2022-08-01T04:42:33;99185.59;;;32.83;48.12
17772;BME280;9010;32.624;-96.938;2022-08-01T04:45:02;99179.28;;;32.82;47.68
17772;BME280;9010;32.624;-96.938;2022-08-01T04:47:30;99191.03;;;32.83;47.49
17772;BME280;9010;32.624;-96.938;2022-08-01T04:50:04;99175.97;;;32.80;47.67
17772;BME280;9010;32.624;-96.938;2022-08-01T04:52:35;99187.91;;;32.79;48.10
17772;BME280;9010;32.624;-96.938;2022-08-01T04:55:04;99192.75;;;32.77;47.78
17772;BME280;9010;32.624;-96.938;2022-08-01T04:57:36;99180.03;;;32.71;48.47
17772;BME280;9010;32.624;-96.938;2022-08-01T05:00:06;99186.38;;;32.65;49.38
17772;BME280;9010;32.624;-96.938;2022-08-01T05:02:34;99188.09;;;32.60;47.64
17772;BME280;9010;32.624;-96.938;2022-08-01T05:05:05;99185.81;;;32.57;48.89
17772;BME280;9010;32.624;-96.938;2022-08-01T05:07:34;99197.72;;;32.62;47.89
17772;BME280;9010;32.624;-96.938;2022-08-01T05:10:02;99190.84;;;32.53;49.27
17772;BME280;9010;32.624;-96.938;2022-08-01T05:12:31;99182.94;;;32.45;47.75
17772;BME280;9010;32.624;-96.938;2022-08-01T05:14:59;99189.00;;;32.47;47.93
17772;BME280;9010;32.624;-96.938;2022-08-01T05:17:28;99182.94;;;32.45;48.23
17772;BME280;9010;32.624;-96.938;2022-08-01T05:19:56;99186.50;;;32.46;48.69
17772;BME280;9010;32.624;-96.938;2022-08-01T05:22:26;99191.84;;;32.34;48.70
17772;BME280;9010;32.624;-96.938;2022-08-01T05:24:54;99191.22;;;32.32;48.65
17772;BME280;9010;32.624;-96.938;2022-08-01T05:27:23;99186.88;;;32.24;49.94
17772;BME280;9010;32.624;-96.938;2022-08-01T05:29:51;99193.44;;;32.17;49.89
17772;BME280;9010;32.624;-96.938;2022-08-01T05:32:19;99189.09;;;32.09;50.32
17772;BME280;9010;32.624;-96.938;2022-08-01T05:34:47;99193.09;;;32.07;50.29
17772;BME280;9010;32.624;-96.938;2022-08-01T05:37:15;99196.66;;;32.01;51.10
17772;BME280;9010;32.624;-96.938;2022-08-01T05:39:45;99201.28;;;31.94;49.82
17772;BME280;9010;32.624;-96.938;2022-08-01T05:42:13;99204.25;;;31.85;51.42
17772;BME280;9010;32.624;-96.938;2022-08-01T05:44:42;99194.41;;;31.84;49.53
17772;BME280;9010;32.624;-96.938;2022-08-01T05:47:10;99195.06;;;31.86;49.69
17772;BME280;9010;32.624;-96.938;2022-08-01T05:49:38;99193.78;;;31.89;49.83
17772;BME280;9010;32.624;-96.938;2022-08-01T05:52:07;99188.38;;;31.82;47.82
17772;BME280;9010;32.624;-96.938;2022-08-01T05:54:35;99186.66;;;31.88;48.38
17772;BME280;9010;32.624;-96.938;2022-08-01T05:57:05;99197.16;;;31.84;49.32
17772;BME280;9010;32.624;-96.938;2022-08-01T05:59:33;99193.22;;;31.80;48.05
17772;BME280;9010;32.624;-96.938;2022-08-01T06:02:02;99197.53;;;31.88;46.57
17772;BME280;9010;32.624;-96.938;2022-08-01T06:04:30;99198.38;;;31.88;47.60
17772;BME280;9010;32.624;-96.938;2022-08-01T06:06:58;99194.22;;;31.86;47.12
17772;BME280;9010;32.624;-96.938;2022-08-01T06:09:26;99198.84;;;31.79;48.63
17772;BME280;9010;32.624;-96.938;2022-08-01T06:11:55;99209.97;;;31.77;48.69
17772;BME280;9010;32.624;-96.938;2022-08-01T06:14:25;99210.22;;;31.69;48.94
17772;BME280;9010;32.624;-96.938;2022-08-01T06:16:53;99186.88;;;31.49;50.12
17772;BME280;9010;32.624;-96.938;2022-08-01T06:19:21;99190.19;;;31.51;49.96
17772;BME280;9010;32.624;-96.938;2022-08-01T06:21:49;99211.75;;;31.52;51.82
17772;BME280;9010;32.624;-96.938;2022-08-01T06:24:17;99217.00;;;31.47;51.51
17772;BME280;9010;32.624;-96.938;2022-08-01T06:26:46;99217.81;;;31.41;53.23
17772;BME280;9010;32.624;-96.938;2022-08-01T06:29:14;99226.63;;;31.30;53.77
17772;BME280;9010;32.624;-96.938;2022-08-01T06:31:44;99222.06;;;31.24;55.32
17772;BME280;9010;32.624;-96.938;2022-08-01T06:34:12;99221.63;;;31.20;55.60
17772;BME280;9010;32.624;-96.938;2022-08-01T06:36:41;99224.16;;;31.22;56.53
17772;BME280;9010;32.624;-96.938;2022-08-01T06:39:09;99221.88;;;31.19;57.32
17772;BME280;9010;32.624;-96.938;2022-08-01T06:41:38;99221.91;;;30.99;59.57
17772;BME280;9010;32.624;-96.938;2022-08-01T06:44:07;99226.28;;;31.00;60.25
17772;BME280;9010;32.624;-96.938;2022-08-01T06:46:35;99224.78;;;30.91;61.99
17772;BME280;9010;32.624;-96.938;2022-08-01T06:49:05;99224.63;;;30.93;60.98
17772;BME280;9010;32.624;-96.938;2022-08-01T06:51:33;99226.25;;;30.74;66.56
17772;BME280;9010;32.624;-96.938;2022-08-01T06:54:02;99223.34;;;30.69;63.58
17772;BME280;9010;32.624;-96.938;2022-08-01T06:56:30;99226.28;;;30.67;65.11
17772;BME280;9010;32.624;-96.938;2022-08-01T06:59:01;99231.91;;;30.66;63.66
17772;BME280;9010;32.624;-96.938;2022-08-01T07:01:29;99227.34;;;30.53;66.44
17772;BME280;9010;32.624;-96.938;2022-08-01T07:03:57;99227.94;;;30.49;67.66
17772;BME280;9010;32.624;-96.938;2022-08-01T07:06:27;99217.50;;;30.52;66.11
17772;BME280;9010;32.624;-96.938;2022-08-01T07:08:56;99218.75;;;30.50;66.74
17772;BME280;9010;32.624;-96.938;2022-08-01T07:11:24;99225.44;;;30.47;67.60
17772;BME280;9010;32.624;-96.938;2022-08-01T07:13:52;99226.06;;;30.49;66.24
17772;BME280;9010;32.624;-96.938;2022-08-01T07:16:20;99215.44;;;30.48;67.33
17772;BME280;9010;32.624;-96.938;2022-08-01T07:18:49;99214.38;;;30.49;68.22
17772;BME280;9010;32.624;-96.938;2022-08-01T07:21:17;99224.59;;;30.40;69.39
17772;BME280;9010;32.624;-96.938;2022-08-01T07:23:47;99228.75;;;30.43;68.08
17772;BME280;9010;32.624;-96.938;2022-08-01T07:26:15;99227.53;;;30.39;69.27
17772;BME280;9010;32.624;-96.938;2022-08-01T07:28:43;99231.69;;;30.41;69.08
17772;BME280;9010;32.624;-96.938;2022-08-01T07:31:12;99223.56;;;30.41;69.10
17772;BME280;9010;32.624;-96.938;2022-08-01T07:33:40;99221.88;;;30.40;69.64
17772;BME280;9010;32.624;-96.938;2022-08-01T07:36:08;99225.59;;;30.33;71.04
17772;BME280;9010;32.624;-96.938;2022-08-01T07:38:37;99221.63;;;30.35;70.35
17772;BME280;9010;32.624;-96.938;2022-08-01T07:41:06;99221.44;;;30.30;72.20
17772;BME280;9010;32.624;-96.938;2022-08-01T07:43:35;99215.59;;;30.33;71.01
17772;BME280;9010;32.624;-96.938;2022-08-01T07:46:03;99220.81;;;30.28;71.86
17772;BME280;9010;32.624;-96.938;2022-08-01T07:48:32;99209.31;;;30.26;71.79
17772;BME280;9010;32.624;-96.938;2022-08-01T07:51:00;99223.28;;;30.23;72.17
17772;BME280;9010;32.624;-96.938;2022-08-01T07:53:29;99213.06;;;30.18;72.41
17772;BME280;9010;32.624;-96.938;2022-08-01T07:55:57;99223.53;;;30.28;72.31
17772;BME280;9010;32.624;-96.938;2022-08-01T07:58:27;99228.72;;;30.30;72.67
17772;BME280;9010;32.624;-96.938;2022-08-01T08:00:55;99224.97;;;30.24;73.11
17772;BME280;9010;32.624;-96.938;2022-08-01T08:03:24;99232.47;;;30.22;72.99
17772;BME280;9010;32.624;-96.938;2022-08-01T08:05:52;99240.38;;;30.17;74.03
17772;BME280;9010;32.624;-96.938;2022-08-01T08:08:21;99231.63;;;30.15;73.35
17772;BME280;9010;32.624;-96.938;2022-08-01T08:10:50;99231.59;;;30.02;75.42
17772;BME280;9010;32.624;-96.938;2022-08-01T08:13:18;99239.53;;;30.10;73.92
17772;BME280;9010;32.624;-96.938;2022-08-01T08:15:48;99235.56;;;30.06;74.41
17772;BME280;9010;32.624;-96.938;2022-08-01T08:18:16;99237.03;;;30.08;74.22
17772;BME280;9010;32.624;-96.938;2022-08-01T08:20:44;99231.59;;;30.02;75.35
17772;BME280;9010;32.624;-96.938;2022-08-01T08:23:13;99236.41;;;30.00;75.95
17772;BME280;9010;32.624;-96.938;2022-08-01T08:25:58;99230.31;;;29.98;75.00
17772;BME280;9010;32.624;-96.938;2022-08-01T08:28:26;99233.25;;;29.96;75.92
17772;BME280;9010;32.624;-96.938;2022-08-01T08:30:56;99231.56;;;29.95;76.63
17772;BME280;9010;32.624;-96.938;2022-08-01T08:33:24;99238.22;;;29.86;77.31
17772;BME280;9010;32.624;-96.938;2022-08-01T08:35:52;99238.38;;;29.78;78.34
17772;BME280;9010;32.624;-96.938;2022-08-01T08:38:21;99230.63;;;29.75;78.96
17772;BME280;9010;32.624;-96.938;2022-08-01T08:40:52;99238.59;;;29.77;77.53
17772;BME280;9010;32.624;-96.938;2022-08-01T08:43:21;99235.09;;;29.83;77.20
17772;BME280;9010;32.624;-96.938;2022-08-01T08:45:51;99235.47;;;29.80;77.60
17772;BME280;9010;32.624;-96.938;2022-08-01T08:48:21;99236.91;;;29.76;78.59
17772;BME280;9010;32.624;-96.938;2022-08-01T08:50:51;99236.28;;;29.74;78.44
17772;BME280;9010;32.624;-96.938;2022-08-01T08:53:19;99245.03;;;29.76;78.81
17772;BME280;9010;32.624;-96.938;2022-08-01T08:55:48;99226.88;;;29.70;79.90
17772;BME280;9010;32.624;-96.938;2022-08-01T08:58:18;99228.97;;;29.68;80.22
17772;BME280;9010;32.624;-96.938;2022-08-01T09:00:47;99240.59;;;29.61;80.22
17772;BME280;9010;32.624;-96.938;2022-08-01T09:03:16;99239.97;;;29.59;80.14
17772;BME280;9010;32.624;-96.938;2022-08-01T09:05:46;99236.59;;;29.57;80.87
17772;BME280;9010;32.624;-96.938;2022-08-01T09:08:14;99245.78;;;29.56;79.98
17772;BME280;9010;32.624;-96.938;2022-08-01T09:10:42;99238.06;;;29.53;80.86
17772;BME280;9010;32.624;-96.938;2022-08-01T09:13:12;99235.75;;;29.50;80.76
17772;BME280;9010;32.624;-96.938;2022-08-01T09:15:43;99233.66;;;29.46;81.87
17772;BME280;9010;32.624;-96.938;2022-08-01T09:18:29;99235.09;;;29.42;81.48
17772;BME280;9010;32.624;-96.938;2022-08-01T09:21:17;99238.66;;;29.42;82.34
17772;BME280;9010;32.624;-96.938;2022-08-01T09:23:48;99238.16;;;29.32;83.44
17772;BME280;9010;32.624;-96.938;2022-08-01T09:26:18;99233.97;;;29.30;83.46
17772;BME280;9010;32.624;-96.938;2022-08-01T09:28:47;99243.97;;;29.29;84.30
17772;BME280;9010;32.624;-96.938;2022-08-01T09:31:18;99238.31;;;29.24;83.44
17772;BME280;9010;32.624;-96.938;2022-08-01T09:33:52;99245.03;;;29.28;83.51
17772;BME280;9010;32.624;-96.938;2022-08-01T09:36:23;99251.69;;;29.32;83.32
17772;BME280;9010;32.624;-96.938;2022-08-01T09:38:52;99237.69;;;29.22;83.81
17772;BME280;9010;32.624;-96.938;2022-08-01T09:41:30;99246.06;;;29.27;84.15
17772;BME280;9010;32.624;-96.938;2022-08-01T09:43:58;99248.44;;;29.16;86.31
17772;BME280;9010;32.624;-96.938;2022-08-01T09:46:27;99237.31;;;29.04;86.28
17772;BME280;9010;32.624;-96.938;2022-08-01T09:48:57;99236.06;;;29.00;86.79
17772;BME280;9010;32.624;-96.938;2022-08-01T09:51:32;99249.59;;;29.00;86.29
17772;BME280;9010;32.624;-96.938;2022-08-01T09:54:02;99250.19;;;28.95;87.67
17772;BME280;9010;32.624;-96.938;2022-08-01T09:56:41;99239.75;;;28.92;87.11
17772;BME280;9010;32.624;-96.938;2022-08-01T09:59:11;99245.22;;;28.99;87.40
17772;BME280;9010;32.624;-96.938;2022-08-01T10:01:45;99245.38;;;28.91;89.71
17772;BME280;9010;32.624;-96.938;2022-08-01T10:04:14;99253.88;;;28.88;94.25
17772;BME280;9010;32.624;-96.938;2022-08-01T10:06:46;99252.16;;;28.80;90.82
17772;BME280;9010;32.624;-96.938;2022-08-01T10:09:27;99243.00;;;28.81;93.54
17772;BME280;9010;32.624;-96.938;2022-08-01T10:11:56;99242.69;;;28.70;97.49
17772;BME280;9010;32.624;-96.938;2022-08-01T10:14:25;99250.56;;;28.65;98.45
17772;BME280;9010;32.624;-96.938;2022-08-01T10:16:56;99246.84;;;28.66;93.90
17772;BME280;9010;32.624;-96.938;2022-08-01T10:19:26;99257.03;;;28.64;96.01
17772;BME280;9010;32.624;-96.938;2022-08-01T10:21:57;99251.66;;;28.49;98.21
17772;BME280;9010;32.624;-96.938;2022-08-01T10:24:26;99255.84;;;28.51;96.16
17772;BME280;9010;32.624;-96.938;2022-08-01T10:26:57;99249.91;;;28.41;100.00
17772;BME280;9010;32.624;-96.938;2022-08-01T10:29:31;99243.41;;;28.36;97.06
17772;BME280;9010;32.624;-96.938;2022-08-01T10:32:04;99252.34;;;28.36;94.54
17772;BME280;9010;32.624;-96.938;2022-08-01T10:34:36;99254.22;;;28.36;96.10
17772;BME280;9010;32.624;-96.938;2022-08-01T10:37:07;99250.13;;;28.40;98.74
17772;BME280;9010;32.624;-96.938;2022-08-01T10:39:35;99264.63;;;28.32;98.15
17772;BME280;9010;32.624;-96.938;2022-08-01T10:42:06;99262.94;;;28.31;98.37
17772;BME280;9010;32.624;-96.938;2022-08-01T10:44:38;99274.13;;;28.28;98.53
17772;BME280;9010;32.624;-96.938;2022-08-01T10:47:10;99276.56;;;28.23;100.00
17772;BME280;9010;32.624;-96.938;2022-08-01T10:49:43;99264.28;;;28.21;100.00
17772;BME280;9010;32.624;-96.938;2022-08-01T10:52:18;99276.56;;;28.23;100.00
17772;BME280;9010;32.624;-96.938;2022-08-01T10:54:46;99272.66;;;28.26;99.25
17772;BME280;9010;32.624;-96.938;2022-08-01T10:57:15;99280.03;;;28.17;100.00
17772;BME280;9010;32.624;-96.938;2022-08-01T10:59:50;99280.88;;;28.18;100.00
17772;BME280;9010;32.624;-96.938;2022-08-01T11:02:29;99282.94;;;28.16;100.00
17772;BME280;9010;32.624;-96.938;2022-08-01T11:05:01;99285.84;;;28.14;100.00
17772;BME280;9010;32.624;-96.938;2022-08-01T11:07:43;99287.91;;;28.12;100.00
17772;BME280;9010;32.624;-96.938;2022-08-01T11:10:24;99298.44;;;28.07;100.00
17772;BME280;9010;32.624;-96.938;2022-08-01T11:12:53;99295.94;;;28.06;100.00
17772;BME280;9010;32.624;-96.938;2022-08-01T11:15:25;99298.63;;;28.06;100.00
17772;BME280;9010;32.624;-96.938;2022-08-01T11:17:55;99297.50;;;28.00;100.00
17772;BME280;9010;32.624;-96.938;2022-08-01T11:20:24;99299.56;;;27.98;100.00
17772;BME280;9010;32.624;-96.938;2022-08-01T11:23:30;99312.03;;;27.99;100.00
17772;BME280;9010;32.624;-96.938;2022-08-01T11:26:09;99313.25;;;27.96;100.00
17772;BME280;9010;32.624;-96.938;2022-08-01T11:28:38;99315.09;;;27.96;100.00
17772;BME280;9010;32.624;-96.938;2022-08-01T11:31:26;99325.66;;;27.91;100.00
17772;BME280;9010;32.624;-96.938;2022-08-01T11:33:54;99324.81;;;27.90;100.00
17772;BME280;9010;32.624;-96.938;2022-08-01T11:36:23;99328.34;;;27.91;100.00
17772;BME280;9010;32.624;-96.938;2022-08-01T11:39:16;99332.09;;;27.90;100.00
17772;BME280;9010;32.624;-96.938;2022-08-01T11:41:46;99330.88;;;27.92;100.00
17772;BME280;9010;32.624;-96.938;2022-08-01T11:44:18;99329.38;;;27.90;100.00
17772;BME280;9010;32.624;-96.938;2022-08-01T11:46:59;99325.66;;;27.91;100.00
17772;BME280;9010;32.624;-96.938;2022-08-01T11:49:31;99327.34;;;27.92;100.00
17772;BME280;9010;32.624;-96.938;2022-08-01T11:52:03;99328.56;;;27.89;100.00
17772;BME280;9010;32.624;-96.938;2022-08-01T11:54:35;99330.16;;;27.84;100.00
17772;BME280;9010;32.624;-96.938;2022-08-01T11:57:05;99330.97;;;27.84;100.00
17772;BME280;9010;32.624;-96.938;2022-08-01T11:59:38;99343.00;;;27.82;100.00
17772;BME280;9010;32.624;-96.938;2022-08-01T12:02:20;99336.94;;;27.80;100.00
17772;BME280;9010;32.624;-96.938;2022-08-01T12:04:51;99341.22;;;27.89;100.00
17772;BME280;9010;32.624;-96.938;2022-08-01T12:07:22;99344.56;;;27.91;100.00
17772;BME280;9010;32.624;-96.938;2022-08-01T12:09:59;99349.44;;;27.81;100.00
17772;BME280;9010;32.624;-96.938;2022-08-01T12:12:28;99327.00;;;27.66;100.00
17772;BME280;9010;32.624;-96.938;2022-08-01T12:14:58;99348.34;;;27.75;100.00
17772;BME280;9010;32.624;-96.938;2022-08-01T12:17:34;99349.34;;;27.74;100.00
17772;BME280;9010;32.624;-96.938;2022-08-01T12:20:04;99345.44;;;27.77;100.00
17772;BME280;9010;32.624;-96.938;2022-08-01T12:22:33;99342.81;;;27.83;100.00
17772;BME280;9010;32.624;-96.938;2022-08-01T12:25:11;99349.81;;;27.78;100.00
17772;BME280;9010;32.624;-96.938;2022-08-01T12:27:41;99350.19;;;27.75;100.00
17772;BME280;9010;32.624;-96.938;2022-08-01T12:30:11;99361.28;;;27.80;100.00
17772;BME280;9010;32.624;-96.938;2022-08-01T12:32:41;99365.66;;;27.81;100.00
17772;BME280;9010;32.624;-96.938;2022-08-01T12:35:11;99359.94;;;27.90;100.00
17772;BME280;9010;32.624;-96.938;2022-08-01T12:37:41;99359.47;;;28.02;100.00
17772;BME280;9010;32.624;-96.938;2022-08-01T12:40:13;99361.66;;;28.06;100.00
17772;BME280;9010;32.624;-96.938;2022-08-01T12:42:43;99367.53;;;28.10;100.00
17772;BME280;9010;32.624;-96.938;2022-08-01T12:45:13;99368.06;;;28.20;100.00
17772;BME280;9010;32.624;-96.938;2022-08-01T12:47:42;99370.69;;;28.13;100.00
17772;BME280;9010;32.624;-96.938;2022-08-01T12:50:14;99368.19;;;28.12;100.00
17772;BME280;9010;32.624;-96.938;2022-08-01T12:52:42;99369.19;;;28.11;100.00
17772;BME280;9010;32.624;-96.938;2022-08-01T12:55:14;99370.94;;;28.18;100.00
17772;BME280;9010;32.624;-96.938;2022-08-01T12:57:45;99375.06;;;28.14;100.00
17772;BME280;9010;32.624;-96.938;2022-08-01T13:00:20;99365.09;;;28.15;100.00
17772;BME280;9010;32.624;-96.938;2022-08-01T13:03:00;99381.38;;;28.21;100.00
17772;BME280;9010;32.624;-96.938;2022-08-01T13:05:31;99389.22;;;28.31;100.00